sensor_id;sensor_type;location;lat;lon;timestamp;P1;durP1;ratioP1;P2;durP2;ratioP2
73575;SDS011;61859;49.204;8.140;2022-07-23T00:00:32;6.50;;;5.87;;
73575;SDS011;61859;49.204;8.140;2022-07-23T00:02:57;7.33;;;5.73;;
73575;SDS011;61859;49.204;8.140;2022-07-23T00:05:24;6.03;;;5.53;;
73575;SDS011;61859;49.204;8.140;2022-07-23T00:07:49;6.60;;;5.40;;
73575;SDS011;61859;49.204;8.140;2022-07-23T00:10:15;6.10;;;5.50;;
73575;SDS011;61859;49.204;8.140;2022-07-23T00:12:40;6.17;;;5.63;;
73575;SDS011;61859;49.204;8.140;2022-07-23T00:15:06;6.30;;;5.57;;
73575;SDS011;61859;49.204;8.140;2022-07-23T00:17:33;9.13;;;5.53;;
73575;SDS011;61859;49.204;8.140;2022-07-23T00:19:59;5.90;;;5.50;;
73575;SDS011;61859;49.204;8.140;2022-07-23T00:22:25;6.00;;;5.50;;
73575;SDS011;61859;49.204;8.140;2022-07-23T00:24:51;5.43;;;4.90;;
73575;SDS011;61859;49.204;8.140;2022-07-23T00:27:16;6.07;;;5.57;;
73575;SDS011;61859;49.204;8.140;2022-07-23T00:29:42;6.73;;;5.63;;
73575;SDS011;61859;49.204;8.140;2022-07-23T00:32:07;6.73;;;5.93;;
73575;SDS011;61859;49.204;8.140;2022-07-23T00:34:33;6.53;;;5.97;;
73575;SDS011;61859;49.204;8.140;2022-07-23T00:36:58;6.43;;;5.77;;
73575;SDS011;61859;49.204;8.140;2022-07-23T00:39:24;5.70;;;5.20;;
73575;SDS011;61859;49.204;8.140;2022-07-23T00:41:51;5.93;;;5.33;;
73575;SDS011;61859;49.204;8.140;2022-07-23T00:44:21;6.20;;;5.60;;
73575;SDS011;61859;49.204;8.140;2022-07-23T00:46:52;6.37;;;5.83;;
73575;SDS011;61859;49.204;8.140;2022-07-23T00:49:20;6.97;;;5.77;;
73575;SDS011;61859;49.204;8.140;2022-07-23T00:51:46;6.13;;;5.53;;
73575;SDS011;61859;49.204;8.140;2022-07-23T00:54:12;6.77;;;6.13;;
73575;SDS011;61859;49.204;8.140;2022-07-23T00:56:38;6.20;;;5.60;;
73575;SDS011;61859;49.204;8.140;2022-07-23T00:59:06;8.00;;;6.37;;
73575;SDS011;61859;49.204;8.140;2022-07-23T01:01:32;7.10;;;5.77;;
73575;SDS011;61859;49.204;8.140;2022-07-23T01:03:58;6.27;;;5.67;;
73575;SDS011;61859;49.204;8.140;2022-07-23T01:06:23;7.50;;;5.53;;
73575;SDS011;61859;49.204;8.140;2022-07-23T01:08:49;5.70;;;5.27;;
73575;SDS011;61859;49.204;8.140;2022-07-23T01:11:14;6.57;;;6.00;;
73575;SDS011;61859;49.204;8.140;2022-07-23T01:13:42;5.97;;;5.47;;
73575;SDS011;61859;49.204;8.140;2022-07-23T01:16:08;9.37;;;5.77;;
73575;SDS011;61859;49.204;8.140;2022-07-23T01:18:33;6.73;;;6.00;;
73575;SDS011;61859;49.204;8.140;2022-07-23T01:20:59;7.33;;;6.10;;
73575;SDS011;61859;49.204;8.140;2022-07-23T01:23:24;6.43;;;5.93;;
73575;SDS011;61859;49.204;8.140;2022-07-23T01:25:53;10.60;;;6.23;;
73575;SDS011;61859;49.204;8.140;2022-07-23T01:28:20;6.10;;;5.50;;
73575;SDS011;61859;49.204;8.140;2022-07-23T01:30:45;7.47;;;6.20;;
73575;SDS011;61859;49.204;8.140;2022-07-23T01:33:11;7.60;;;5.93;;
73575;SDS011;61859;49.204;8.140;2022-07-23T01:35:37;7.10;;;6.40;;
73575;SDS011;61859;49.204;8.140;2022-07-23T01:38:02;8.43;;;6.10;;
73575;SDS011;61859;49.204;8.140;2022-07-23T01:40:28;6.73;;;6.13;;
73575;SDS011;61859;49.204;8.140;2022-07-23T01:42:54;6.20;;;5.70;;
73575;SDS011;61859;49.204;8.140;2022-07-23T01:45:19;6.53;;;5.93;;
73575;SDS011;61859;49.204;8.140;2022-07-23T01:47:45;6.57;;;6.07;;
73575;SDS011;61859;49.204;8.140;2022-07-23T01:50:11;8.00;;;6.43;;
73575;SDS011;61859;49.204;8.140;2022-07-23T01:52:37;7.00;;;5.97;;
73575;SDS011;61859;49.204;8.140;2022-07-23T01:55:02;6.07;;;5.57;;
73575;SDS011;61859;49.204;8.140;2022-07-23T01:57:28;7.53;;;5.77;;
73575;SDS011;61859;49.204;8.140;2022-07-23T01:59:54;6.43;;;5.83;;
73575;SDS011;61859;49.204;8.140;2022-07-23T02:02:19;6.60;;;5.93;;
73575;SDS011;61859;49.204;8.140;2022-07-23T02:04:45;7.93;;;5.90;;
73575;SDS011;61859;49.204;8.140;2022-07-23T02:07:10;7.87;;;5.83;;
73575;SDS011;61859;49.204;8.140;2022-07-23T02:09:36;7.00;;;5.70;;
73575;SDS011;61859;49.204;8.140;2022-07-23T02:12:01;5.93;;;5.33;;
73575;SDS011;61859;49.204;8.140;2022-07-23T02:14:27;6.17;;;5.60;;
73575;SDS011;61859;49.204;8.140;2022-07-23T02:16:53;6.97;;;5.90;;
73575;SDS011;61859;49.204;8.140;2022-07-23T02:19:18;8.97;;;6.40;;
73575;SDS011;61859;49.204;8.140;2022-07-23T02:21:44;6.60;;;6.00;;
73575;SDS011;61859;49.204;8.140;2022-07-23T02:24:09;7.73;;;6.17;;
73575;SDS011;61859;49.204;8.140;2022-07-23T02:26:35;6.20;;;5.60;;
73575;SDS011;61859;49.204;8.140;2022-07-23T02:29:02;6.87;;;6.23;;
73575;SDS011;61859;49.204;8.140;2022-07-23T02:31:29;7.17;;;6.47;;
73575;SDS011;61859;49.204;8.140;2022-07-23T02:33:55;6.97;;;6.33;;
73575;SDS011;61859;49.204;8.140;2022-07-23T02:36:20;6.97;;;6.43;;
73575;SDS011;61859;49.204;8.140;2022-07-23T02:38:46;7.13;;;6.43;;
73575;SDS011;61859;49.204;8.140;2022-07-23T02:41:12;6.60;;;6.00;;
73575;SDS011;61859;49.204;8.140;2022-07-23T02:43:38;6.40;;;5.80;;
73575;SDS011;61859;49.204;8.140;2022-07-23T02:46:03;6.40;;;5.80;;
73575;SDS011;61859;49.204;8.140;2022-07-23T02:48:29;6.77;;;6.00;;
73575;SDS011;61859;49.204;8.140;2022-07-23T02:50:55;6.87;;;6.27;;
73575;SDS011;61859;49.204;8.140;2022-07-23T02:53:21;6.93;;;6.23;;
73575;SDS011;61859;49.204;8.140;2022-07-23T02:55:48;6.77;;;6.13;;
73575;SDS011;61859;49.204;8.140;2022-07-23T02:58:13;6.80;;;6.10;;
73575;SDS011;61859;49.204;8.140;2022-07-23T03:00:39;6.77;;;6.17;;
73575;SDS011;61859;49.204;8.140;2022-07-23T03:03:05;7.43;;;6.50;;
73575;SDS011;61859;49.204;8.140;2022-07-23T03:05:31;7.80;;;6.27;;
73575;SDS011;61859;49.204;8.140;2022-07-23T03:07:57;12.63;;;6.70;;
73575;SDS011;61859;49.204;8.140;2022-07-23T03:10:22;7.10;;;6.37;;
73575;SDS011;61859;49.204;8.140;2022-07-23T03:12:48;7.93;;;6.03;;
73575;SDS011;61859;49.204;8.140;2022-07-23T03:15:13;6.90;;;6.30;;
73575;SDS011;61859;49.204;8.140;2022-07-23T03:17:39;7.27;;;6.20;;
73575;SDS011;61859;49.204;8.140;2022-07-23T03:20:05;8.27;;;6.07;;
73575;SDS011;61859;49.204;8.140;2022-07-23T03:22:31;7.73;;;6.73;;
73575;SDS011;61859;49.204;8.140;2022-07-23T03:24:56;7.43;;;6.70;;
73575;SDS011;61859;49.204;8.140;2022-07-23T03:27:22;7.70;;;6.57;;
73575;SDS011;61859;49.204;8.140;2022-07-23T03:29:53;7.83;;;7.00;;
73575;SDS011;61859;49.204;8.140;2022-07-23T03:32:20;7.63;;;6.90;;
73575;SDS011;61859;49.204;8.140;2022-07-23T03:34:46;8.57;;;7.77;;
73575;SDS011;61859;49.204;8.140;2022-07-23T03:37:12;8.50;;;7.67;;
73575;SDS011;61859;49.204;8.140;2022-07-23T03:39:37;8.47;;;7.50;;
73575;SDS011;61859;49.204;8.140;2022-07-23T03:42:03;6.87;;;6.17;;
73575;SDS011;61859;49.204;8.140;2022-07-23T03:44:29;9.63;;;7.03;;
73575;SDS011;61859;49.204;8.140;2022-07-23T03:46:54;7.17;;;6.40;;
73575;SDS011;61859;49.204;8.140;2022-07-23T03:49:20;7.53;;;6.77;;
73575;SDS011;61859;49.204;8.140;2022-07-23T03:51:45;8.63;;;7.40;;
73575;SDS011;61859;49.204;8.140;2022-07-23T03:54:11;10.33;;;7.63;;
73575;SDS011;61859;49.204;8.140;2022-07-23T03:56:37;7.93;;;7.23;;
73575;SDS011;61859;49.204;8.140;2022-07-23T03:59:02;7.87;;;7.07;;
73575;SDS011;61859;49.204;8.140;2022-07-23T04:01:28;8.87;;;7.97;;
73575;SDS011;61859;49.204;8.140;2022-07-23T04:03:54;8.83;;;8.03;;
73575;SDS011;61859;49.204;8.140;2022-07-23T04:06:19;8.53;;;7.77;;
73575;SDS011;61859;49.204;8.140;2022-07-23T04:08:45;10.73;;;8.03;;
73575;SDS011;61859;49.204;8.140;2022-07-23T04:11:10;8.27;;;7.47;;
73575;SDS011;61859;49.204;8.140;2022-07-23T04:13:36;10.07;;;8.37;;
73575;SDS011;61859;49.204;8.140;2022-07-23T04:16:01;8.87;;;8.07;;
73575;SDS011;61859;49.204;8.140;2022-07-23T04:18:28;8.77;;;7.87;;
73575;SDS011;61859;49.204;8.140;2022-07-23T04:20:54;9.27;;;8.37;;
73575;SDS011;61859;49.204;8.140;2022-07-23T04:23:20;10.77;;;8.30;;
73575;SDS011;61859;49.204;8.140;2022-07-23T04:25:45;10.00;;;7.73;;
73575;SDS011;61859;49.204;8.140;2022-07-23T04:28:11;9.33;;;8.40;;
73575;SDS011;61859;49.204;8.140;2022-07-23T04:30:36;10.00;;;8.87;;
73575;SDS011;61859;49.204;8.140;2022-07-23T04:33:02;7.53;;;6.83;;
73575;SDS011;61859;49.204;8.140;2022-07-23T04:35:31;7.20;;;6.60;;
73575;SDS011;61859;49.204;8.140;2022-07-23T04:37:57;7.97;;;7.17;;
73575;SDS011;61859;49.204;8.140;2022-07-23T04:40:23;8.13;;;7.30;;
73575;SDS011;61859;49.204;8.140;2022-07-23T04:42:48;9.47;;;7.63;;
73575;SDS011;61859;49.204;8.140;2022-07-23T04:45:14;10.27;;;8.10;;
73575;SDS011;61859;49.204;8.140;2022-07-23T04:47:39;11.30;;;9.43;;
73575;SDS011;61859;49.204;8.140;2022-07-23T04:50:05;12.63;;;8.47;;
73575;SDS011;61859;49.204;8.140;2022-07-23T04:52:31;8.30;;;7.47;;
73575;SDS011;61859;49.204;8.140;2022-07-23T04:54:56;8.27;;;7.47;;
73575;SDS011;61859;49.204;8.140;2022-07-23T04:57:22;8.93;;;8.13;;
73575;SDS011;61859;49.204;8.140;2022-07-23T04:59:47;8.60;;;7.80;;
73575;SDS011;61859;49.204;8.140;2022-07-23T05:02:13;8.37;;;7.63;;
73575;SDS011;61859;49.204;8.140;2022-07-23T05:04:38;11.20;;;8.40;;
73575;SDS011;61859;49.204;8.140;2022-07-23T05:07:04;9.47;;;8.53;;
73575;SDS011;61859;49.204;8.140;2022-07-23T05:09:29;8.40;;;7.60;;
73575;SDS011;61859;49.204;8.140;2022-07-23T05:11:55;9.67;;;8.13;;
73575;SDS011;61859;49.204;8.140;2022-07-23T05:14:20;10.37;;;8.57;;
73575;SDS011;61859;49.204;8.140;2022-07-23T05:16:46;10.00;;;8.10;;
73575;SDS011;61859;49.204;8.140;2022-07-23T05:19:11;9.50;;;8.30;;
73575;SDS011;61859;49.204;8.140;2022-07-23T05:21:37;9.63;;;8.63;;
73575;SDS011;61859;49.204;8.140;2022-07-23T05:24:03;10.70;;;9.60;;
73575;SDS011;61859;49.204;8.140;2022-07-23T05:26:28;12.73;;;8.93;;
73575;SDS011;61859;49.204;8.140;2022-07-23T05:28:54;9.83;;;8.93;;
73575;SDS011;61859;49.204;8.140;2022-07-23T05:31:19;10.67;;;8.87;;
73575;SDS011;61859;49.204;8.140;2022-07-23T05:33:45;11.97;;;9.10;;
73575;SDS011;61859;49.204;8.140;2022-07-23T05:36:10;9.53;;;8.20;;
73575;SDS011;61859;49.204;8.140;2022-07-23T05:38:36;10.67;;;8.73;;
73575;SDS011;61859;49.204;8.140;2022-07-23T05:41:02;9.67;;;8.67;;
73575;SDS011;61859;49.204;8.140;2022-07-23T05:43:27;9.83;;;8.83;;
73575;SDS011;61859;49.204;8.140;2022-07-23T05:45:53;9.50;;;8.50;;
73575;SDS011;61859;49.204;8.140;2022-07-23T05:48:19;9.20;;;8.33;;
73575;SDS011;61859;49.204;8.140;2022-07-23T05:50:46;9.17;;;8.37;;
73575;SDS011;61859;49.204;8.140;2022-07-23T05:53:11;10.83;;;9.10;;
73575;SDS011;61859;49.204;8.140;2022-07-23T05:55:37;9.13;;;7.90;;
73575;SDS011;61859;49.204;8.140;2022-07-23T05:58:03;8.37;;;7.63;;
73575;SDS011;61859;49.204;8.140;2022-07-23T06:00:28;9.03;;;7.70;;
73575;SDS011;61859;49.204;8.140;2022-07-23T06:02:54;10.90;;;8.57;;
73575;SDS011;61859;49.204;8.140;2022-07-23T06:05:19;10.20;;;8.70;;
73575;SDS011;61859;49.204;8.140;2022-07-23T06:07:45;9.17;;;8.27;;
73575;SDS011;61859;49.204;8.140;2022-07-23T06:10:11;8.77;;;7.97;;
73575;SDS011;61859;49.204;8.140;2022-07-23T06:12:36;8.50;;;7.63;;
73575;SDS011;61859;49.204;8.140;2022-07-23T06:15:02;7.97;;;6.87;;
73575;SDS011;61859;49.204;8.140;2022-07-23T06:17:28;8.50;;;7.60;;
73575;SDS011;61859;49.204;8.140;2022-07-23T06:19:54;9.50;;;8.20;;
73575;SDS011;61859;49.204;8.140;2022-07-23T06:22:20;9.30;;;8.20;;
73575;SDS011;61859;49.204;8.140;2022-07-23T06:24:46;9.03;;;8.17;;
73575;SDS011;61859;49.204;8.140;2022-07-23T06:27:12;9.43;;;8.37;;
73575;SDS011;61859;49.204;8.140;2022-07-23T06:29:38;9.63;;;8.60;;
73575;SDS011;61859;49.204;8.140;2022-07-23T06:32:05;9.60;;;8.60;;
73575;SDS011;61859;49.204;8.140;2022-07-23T06:34:31;9.80;;;8.57;;
73575;SDS011;61859;49.204;8.140;2022-07-23T06:36:57;8.83;;;8.03;;
73575;SDS011;61859;49.204;8.140;2022-07-23T06:39:22;8.87;;;7.97;;
73575;SDS011;61859;49.204;8.140;2022-07-23T06:41:48;8.70;;;7.90;;
73575;SDS011;61859;49.204;8.140;2022-07-23T06:44:13;9.77;;;8.27;;
73575;SDS011;61859;49.204;8.140;2022-07-23T06:46:39;9.20;;;8.40;;
73575;SDS011;61859;49.204;8.140;2022-07-23T06:49:04;10.00;;;8.80;;
73575;SDS011;61859;49.204;8.140;2022-07-23T06:51:30;9.87;;;8.67;;
73575;SDS011;61859;49.204;8.140;2022-07-23T06:53:55;10.07;;;8.00;;
73575;SDS011;61859;49.204;8.140;2022-07-23T06:56:21;8.83;;;8.03;;
73575;SDS011;61859;49.204;8.140;2022-07-23T06:58:47;9.20;;;8.30;;
73575;SDS011;61859;49.204;8.140;2022-07-23T07:01:12;9.93;;;8.90;;
73575;SDS011;61859;49.204;8.140;2022-07-23T07:03:38;10.80;;;9.20;;
73575;SDS011;61859;49.204;8.140;2022-07-23T07:06:03;10.93;;;9.83;;
73575;SDS011;61859;49.204;8.140;2022-07-23T07:08:29;10.30;;;9.17;;
73575;SDS011;61859;49.204;8.140;2022-07-23T07:10:55;10.60;;;9.60;;
73575;SDS011;61859;49.204;8.140;2022-07-23T07:13:20;9.77;;;8.87;;
73575;SDS011;61859;49.204;8.140;2022-07-23T07:15:46;10.60;;;9.60;;
73575;SDS011;61859;49.204;8.140;2022-07-23T07:18:11;9.80;;;8.90;;
73575;SDS011;61859;49.204;8.140;2022-07-23T07:20:37;9.53;;;8.57;;
73575;SDS011;61859;49.204;8.140;2022-07-23T07:23:02;9.70;;;8.80;;
73575;SDS011;61859;49.204;8.140;2022-07-23T07:25:28;11.13;;;9.97;;
73575;SDS011;61859;49.204;8.140;2022-07-23T07:27:53;11.23;;;10.30;;
73575;SDS011;61859;49.204;8.140;2022-07-23T07:30:19;10.47;;;9.57;;
73575;SDS011;61859;49.204;8.140;2022-07-23T07:32:45;10.70;;;9.80;;
73575;SDS011;61859;49.204;8.140;2022-07-23T07:35:10;10.53;;;9.53;;
73575;SDS011;61859;49.204;8.140;2022-07-23T07:37:36;10.73;;;9.77;;
73575;SDS011;61859;49.204;8.140;2022-07-23T07:40:02;10.07;;;9.17;;
73575;SDS011;61859;49.204;8.140;2022-07-23T07:42:28;10.93;;;9.10;;
73575;SDS011;61859;49.204;8.140;2022-07-23T07:44:53;10.47;;;9.37;;
73575;SDS011;61859;49.204;8.140;2022-07-23T07:47:19;10.43;;;9.43;;
73575;SDS011;61859;49.204;8.140;2022-07-23T07:49:44;11.53;;;10.13;;
73575;SDS011;61859;49.204;8.140;2022-07-23T07:52:10;10.97;;;9.97;;
73575;SDS011;61859;49.204;8.140;2022-07-23T07:54:36;11.18;;;10.07;;
73575;SDS011;61859;49.204;8.140;2022-07-23T07:57:02;11.03;;;9.93;;
73575;SDS011;61859;49.204;8.140;2022-07-23T07:59:27;11.13;;;9.80;;
73575;SDS011;61859;49.204;8.140;2022-07-23T08:01:53;10.37;;;9.30;;
73575;SDS011;61859;49.204;8.140;2022-07-23T08:04:18;10.55;;;9.50;;
73575;SDS011;61859;49.204;8.140;2022-07-23T08:06:44;11.10;;;10.05;;
73575;SDS011;61859;49.204;8.140;2022-07-23T08:09:10;10.68;;;9.77;;
73575;SDS011;61859;49.204;8.140;2022-07-23T08:11:35;10.00;;;9.00;;
73575;SDS011;61859;49.204;8.140;2022-07-23T08:14:01;10.95;;;10.00;;
73575;SDS011;61859;49.204;8.140;2022-07-23T08:16:26;11.48;;;10.27;;
73575;SDS011;61859;49.204;8.140;2022-07-23T08:18:52;11.55;;;10.35;;
73575;SDS011;61859;49.204;8.140;2022-07-23T08:21:18;11.32;;;10.13;;
73575;SDS011;61859;49.204;8.140;2022-07-23T08:23:43;10.77;;;9.93;;
73575;SDS011;61859;49.204;8.140;2022-07-23T08:26:09;12.02;;;10.48;;
73575;SDS011;61859;49.204;8.140;2022-07-23T08:28:35;11.02;;;9.90;;
73575;SDS011;61859;49.204;8.140;2022-07-23T08:31:00;11.30;;;10.20;;
73575;SDS011;61859;49.204;8.140;2022-07-23T08:33:26;11.02;;;10.02;;
73575;SDS011;61859;49.204;8.140;2022-07-23T08:35:52;11.32;;;10.23;;
73575;SDS011;61859;49.204;8.140;2022-07-23T08:38:18;12.43;;;10.27;;
73575;SDS011;61859;49.204;8.140;2022-07-23T08:40:47;12.23;;;10.25;;
73575;SDS011;61859;49.204;8.140;2022-07-23T08:43:20;10.73;;;9.82;;
73575;SDS011;61859;49.204;8.140;2022-07-23T08:45:50;10.95;;;9.95;;
73575;SDS011;61859;49.204;8.140;2022-07-23T08:48:19;11.55;;;10.00;;
73575;SDS011;61859;49.204;8.140;2022-07-23T08:50:50;10.73;;;9.70;;
73575;SDS011;61859;49.204;8.140;2022-07-23T08:53:21;10.73;;;9.73;;
73575;SDS011;61859;49.204;8.140;2022-07-23T08:55:50;11.77;;;10.55;;
73575;SDS011;61859;49.204;8.140;2022-07-23T08:58:16;11.68;;;10.48;;
73575;SDS011;61859;49.204;8.140;2022-07-23T09:00:42;10.38;;;9.48;;
73575;SDS011;61859;49.204;8.140;2022-07-23T09:03:19;10.15;;;9.13;;
73575;SDS011;61859;49.204;8.140;2022-07-23T09:05:46;10.50;;;9.38;;
73575;SDS011;61859;49.204;8.140;2022-07-23T09:08:15;10.80;;;9.75;;
73575;SDS011;61859;49.204;8.140;2022-07-23T09:13:23;9.68;;;8.77;;
73575;SDS011;61859;49.204;8.140;2022-07-23T09:15:49;10.00;;;9.10;;
73575;SDS011;61859;49.204;8.140;2022-07-23T09:18:16;8.90;;;8.10;;
73575;SDS011;61859;49.204;8.140;2022-07-23T09:20:43;9.32;;;8.48;;
73575;SDS011;61859;49.204;8.140;2022-07-23T09:23:09;8.93;;;8.02;;
73575;SDS011;61859;49.204;8.140;2022-07-23T09:25:35;20.38;;;8.27;;
73575;SDS011;61859;49.204;8.140;2022-07-23T09:28:00;8.40;;;7.47;;
73575;SDS011;61859;49.204;8.140;2022-07-23T09:30:28;8.02;;;7.43;;
73575;SDS011;61859;49.204;8.140;2022-07-23T09:33:03;9.95;;;7.10;;
73575;SDS011;61859;49.204;8.140;2022-07-23T09:35:43;7.05;;;6.35;;
73575;SDS011;61859;49.204;8.140;2022-07-23T09:38:14;7.80;;;7.07;;
73575;SDS011;61859;49.204;8.140;2022-07-23T09:40:40;7.70;;;6.97;;
73575;SDS011;61859;49.204;8.140;2022-07-23T09:43:06;7.95;;;7.25;;
73575;SDS011;61859;49.204;8.140;2022-07-23T09:45:32;7.35;;;6.63;;
73575;SDS011;61859;49.204;8.140;2022-07-23T09:48:10;7.45;;;6.70;;
73575;SDS011;61859;49.204;8.140;2022-07-23T09:50:41;8.63;;;7.50;;
73575;SDS011;61859;49.204;8.140;2022-07-23T09:53:07;7.63;;;6.88;;
73575;SDS011;61859;49.204;8.140;2022-07-23T09:55:33;7.80;;;7.10;;
73575;SDS011;61859;49.204;8.140;2022-07-23T09:58:04;7.60;;;6.90;;
73575;SDS011;61859;49.204;8.140;2022-07-23T10:00:32;7.18;;;6.57;;
73575;SDS011;61859;49.204;8.140;2022-07-23T10:02:58;5.97;;;5.45;;
73575;SDS011;61859;49.204;8.140;2022-07-23T10:05:24;7.93;;;5.40;;
73575;SDS011;61859;49.204;8.140;2022-07-23T10:07:50;6.63;;;5.55;;
73575;SDS011;61859;49.204;8.140;2022-07-23T10:10:17;6.50;;;5.90;;
73575;SDS011;61859;49.204;8.140;2022-07-23T10:12:43;6.60;;;5.75;;
73575;SDS011;61859;49.204;8.140;2022-07-23T10:15:29;6.32;;;5.82;;
73575;SDS011;61859;49.204;8.140;2022-07-23T10:17:55;6.93;;;5.63;;
73575;SDS011;61859;49.204;8.140;2022-07-23T10:20:20;7.85;;;5.75;;
73575;SDS011;61859;49.204;8.140;2022-07-23T10:22:48;6.50;;;5.95;;
73575;SDS011;61859;49.204;8.140;2022-07-23T10:28:27;6.97;;;5.72;;
73575;SDS011;61859;49.204;8.140;2022-07-23T10:31:10;6.38;;;5.72;;
73575;SDS011;61859;49.204;8.140;2022-07-23T10:36:32;5.35;;;4.95;;
73575;SDS011;61859;49.204;8.140;2022-07-23T10:39:12;5.80;;;5.30;;
73575;SDS011;61859;49.204;8.140;2022-07-23T10:41:42;5.45;;;4.95;;
73575;SDS011;61859;49.204;8.140;2022-07-23T10:44:11;6.25;;;5.65;;
73575;SDS011;61859;49.204;8.140;2022-07-23T10:46:58;5.35;;;4.85;;
73575;SDS011;61859;49.204;8.140;2022-07-23T10:49:32;5.85;;;5.35;;
73575;SDS011;61859;49.204;8.140;2022-07-23T10:54:43;7.00;;;5.72;;
73575;SDS011;61859;49.204;8.140;2022-07-23T10:57:27;5.10;;;4.80;;
73575;SDS011;61859;49.204;8.140;2022-07-23T11:02:34;6.15;;;5.55;;
73575;SDS011;61859;49.204;8.140;2022-07-23T11:05:03;5.63;;;5.18;;
73575;SDS011;61859;49.204;8.140;2022-07-23T11:07:30;6.78;;;5.25;;
73575;SDS011;61859;49.204;8.140;2022-07-23T11:09:56;6.47;;;5.85;;
73575;SDS011;61859;49.204;8.140;2022-07-23T11:17:33;7.18;;;5.65;;
73575;SDS011;61859;49.204;8.140;2022-07-23T11:22:37;6.57;;;5.65;;
73575;SDS011;61859;49.204;8.140;2022-07-23T11:25:12;5.90;;;5.22;;
73575;SDS011;61859;49.204;8.140;2022-07-23T11:27:53;6.90;;;5.60;;
73575;SDS011;61859;49.204;8.140;2022-07-23T11:32:54;5.72;;;5.32;;
73575;SDS011;61859;49.204;8.140;2022-07-23T11:35:36;7.25;;;5.85;;
73575;SDS011;61859;49.204;8.140;2022-07-23T11:38:05;7.50;;;6.00;;
73575;SDS011;61859;49.204;8.140;2022-07-23T11:40:32;6.30;;;5.72;;
73575;SDS011;61859;49.204;8.140;2022-07-23T11:43:09;6.95;;;5.80;;
73575;SDS011;61859;49.204;8.140;2022-07-23T11:45:36;6.30;;;5.80;;
73575;SDS011;61859;49.204;8.140;2022-07-23T11:48:03;6.30;;;5.70;;
73575;SDS011;61859;49.204;8.140;2022-07-23T11:50:30;6.50;;;5.90;;
73575;SDS011;61859;49.204;8.140;2022-07-23T11:52:56;6.13;;;5.63;;
73575;SDS011;61859;49.204;8.140;2022-07-23T11:55:22;5.95;;;5.45;;
73575;SDS011;61859;49.204;8.140;2022-07-23T11:57:48;6.00;;;5.40;;
73575;SDS011;61859;49.204;8.140;2022-07-23T12:00:17;5.95;;;5.18;;
73575;SDS011;61859;49.204;8.140;2022-07-23T12:02:49;6.13;;;5.60;;
73575;SDS011;61859;49.204;8.140;2022-07-23T12:05:19;7.60;;;5.85;;
73575;SDS011;61859;49.204;8.140;2022-07-23T12:07:47;6.38;;;5.88;;
73575;SDS011;61859;49.204;8.140;2022-07-23T12:12:53;6.22;;;5.72;;
73575;SDS011;61859;49.204;8.140;2022-07-23T12:15:21;6.32;;;5.60;;
73575;SDS011;61859;49.204;8.140;2022-07-23T12:17:59;6.22;;;5.75;;
73575;SDS011;61859;49.204;8.140;2022-07-23T12:20:26;6.10;;;5.60;;
73575;SDS011;61859;49.204;8.140;2022-07-23T12:22:57;8.07;;;5.68;;
73575;SDS011;61859;49.204;8.140;2022-07-23T12:25:25;6.70;;;6.20;;
73575;SDS011;61859;49.204;8.140;2022-07-23T12:28:10;5.55;;;5.15;;
73575;SDS011;61859;49.204;8.140;2022-07-23T12:30:50;5.90;;;5.20;;
73575;SDS011;61859;49.204;8.140;2022-07-23T12:33:24;8.55;;;5.60;;
73575;SDS011;61859;49.204;8.140;2022-07-23T12:35:55;6.57;;;5.95;;
73575;SDS011;61859;49.204;8.140;2022-07-23T12:38:23;5.95;;;5.47;;
73575;SDS011;61859;49.204;8.140;2022-07-23T12:40:54;6.43;;;5.82;;
73575;SDS011;61859;49.204;8.140;2022-07-23T12:43:25;8.73;;;5.68;;
73575;SDS011;61859;49.204;8.140;2022-07-23T12:45:53;6.32;;;5.60;;
73575;SDS011;61859;49.204;8.140;2022-07-23T12:48:20;5.40;;;4.93;;
73575;SDS011;61859;49.204;8.140;2022-07-23T12:50:51;6.70;;;5.20;;
73575;SDS011;61859;49.204;8.140;2022-07-23T12:53:20;5.80;;;5.35;;
73575;SDS011;61859;49.204;8.140;2022-07-23T12:56:08;5.90;;;5.30;;
73575;SDS011;61859;49.204;8.140;2022-07-23T12:58:41;5.55;;;5.03;;
73575;SDS011;61859;49.204;8.140;2022-07-23T13:03:56;5.65;;;4.97;;
73575;SDS011;61859;49.204;8.140;2022-07-23T13:06:35;5.28;;;4.88;;
73575;SDS011;61859;49.204;8.140;2022-07-23T13:09:11;5.53;;;5.03;;
73575;SDS011;61859;49.204;8.140;2022-07-23T13:11:39;5.72;;;5.05;;
73575;SDS011;61859;49.204;8.140;2022-07-23T13:14:05;5.57;;;4.60;;
73575;SDS011;61859;49.204;8.140;2022-07-23T13:16:31;6.00;;;5.15;;
73575;SDS011;61859;49.204;8.140;2022-07-23T13:18:58;6.55;;;4.88;;
73575;SDS011;61859;49.204;8.140;2022-07-23T13:21:24;5.15;;;4.75;;
73575;SDS011;61859;49.204;8.140;2022-07-23T13:23:50;5.25;;;4.63;;
73575;SDS011;61859;49.204;8.140;2022-07-23T13:26:16;5.65;;;5.15;;
73575;SDS011;61859;49.204;8.140;2022-07-23T13:28:42;5.20;;;4.80;;
73575;SDS011;61859;49.204;8.140;2022-07-23T13:31:08;5.13;;;4.65;;
73575;SDS011;61859;49.204;8.140;2022-07-23T13:33:34;5.07;;;4.68;;
73575;SDS011;61859;49.204;8.140;2022-07-23T13:36:00;5.75;;;5.20;;
73575;SDS011;61859;49.204;8.140;2022-07-23T13:38:26;5.18;;;4.75;;
73575;SDS011;61859;49.204;8.140;2022-07-23T13:40:52;4.40;;;4.10;;
73575;SDS011;61859;49.204;8.140;2022-07-23T13:43:19;5.40;;;4.90;;
73575;SDS011;61859;49.204;8.140;2022-07-23T13:45:46;6.00;;;4.82;;
73575;SDS011;61859;49.204;8.140;2022-07-23T13:48:13;4.93;;;4.53;;
73575;SDS011;61859;49.204;8.140;2022-07-23T13:50:39;5.53;;;5.13;;
73575;SDS011;61859;49.204;8.140;2022-07-23T13:53:10;5.95;;;4.97;;
73575;SDS011;61859;49.204;8.140;2022-07-23T13:55:38;6.53;;;5.15;;
73575;SDS011;61859;49.204;8.140;2022-07-23T13:58:05;7.22;;;5.28;;
73575;SDS011;61859;49.204;8.140;2022-07-23T14:00:32;6.30;;;5.80;;
73575;SDS011;61859;49.204;8.140;2022-07-23T14:02:59;5.70;;;5.28;;
73575;SDS011;61859;49.204;8.140;2022-07-23T14:05:25;5.90;;;5.40;;
73575;SDS011;61859;49.204;8.140;2022-07-23T14:07:51;6.68;;;6.03;;
73575;SDS011;61859;49.204;8.140;2022-07-23T14:10:18;6.45;;;5.40;;
73575;SDS011;61859;49.204;8.140;2022-07-23T14:12:45;6.93;;;6.00;;
73575;SDS011;61859;49.204;8.140;2022-07-23T14:15:12;8.07;;;5.78;;
73575;SDS011;61859;49.204;8.140;2022-07-23T14:17:38;6.13;;;5.53;;
73575;SDS011;61859;49.204;8.140;2022-07-23T14:20:06;7.47;;;5.93;;
73575;SDS011;61859;49.204;8.140;2022-07-23T14:22:32;6.50;;;5.97;;
73575;SDS011;61859;49.204;8.140;2022-07-23T14:24:57;6.65;;;5.88;;
73575;SDS011;61859;49.204;8.140;2022-07-23T14:27:24;6.80;;;6.18;;
73575;SDS011;61859;49.204;8.140;2022-07-23T14:29:50;6.90;;;6.30;;
73575;SDS011;61859;49.204;8.140;2022-07-23T14:32:16;6.15;;;5.55;;
73575;SDS011;61859;49.204;8.140;2022-07-23T14:34:42;6.07;;;5.50;;
73575;SDS011;61859;49.204;8.140;2022-07-23T14:37:09;5.60;;;5.10;;
73575;SDS011;61859;49.204;8.140;2022-07-23T14:39:36;6.70;;;6.13;;
73575;SDS011;61859;49.204;8.140;2022-07-23T14:42:02;6.35;;;5.75;;
73575;SDS011;61859;49.204;8.140;2022-07-23T14:44:28;6.38;;;5.78;;
73575;SDS011;61859;49.204;8.140;2022-07-23T14:46:54;6.22;;;5.38;;
73575;SDS011;61859;49.204;8.140;2022-07-23T14:49:19;7.00;;;5.57;;
73575;SDS011;61859;49.204;8.140;2022-07-23T14:51:45;5.85;;;5.35;;
73575;SDS011;61859;49.204;8.140;2022-07-23T14:54:10;6.43;;;5.53;;
73575;SDS011;61859;49.204;8.140;2022-07-23T14:56:36;5.82;;;5.32;;
73575;SDS011;61859;49.204;8.140;2022-07-23T14:59:05;5.78;;;5.28;;
73575;SDS011;61859;49.204;8.140;2022-07-23T15:01:31;5.95;;;5.45;;
73575;SDS011;61859;49.204;8.140;2022-07-23T15:03:56;5.57;;;4.97;;
73575;SDS011;61859;49.204;8.140;2022-07-23T15:06:22;6.15;;;5.55;;
73575;SDS011;61859;49.204;8.140;2022-07-23T15:08:47;5.88;;;5.35;;
73575;SDS011;61859;49.204;8.140;2022-07-23T15:11:13;6.57;;;5.05;;
73575;SDS011;61859;49.204;8.140;2022-07-23T15:13:39;5.47;;;4.97;;